Latest Weather Observations for West Roebuck

IDW60801

Issued at 8:05 am WST Saturday 30 August 2014 (issued every 30 minutes, with the page automatically refreshed every 10 minutes)

About weather observations | Map of weather stations | Latest weather observations for WA | Other Formats
Station Details ID: 003096 Name: WEST ROEBUCK Lat: -17.90 Lon: 122.31 Height: 32.0 m
Data from the previous 72 hours. | See also: Recent months for locations in Western Australia
Date/Time
WST
Temp
°C
App
Temp
°C
Dew
Point
Rel
Hum
%
Delta-T
°C
Wind Press
QNH
hPa
Press
MSL
hPa
Rain
since 9 am
mm
Dir
 
Spd
km/h
Gust
km/h
Spd
kts
Gust
kts
30/08:00am 20.4 - - - - E 11 17 6 9 - - 0.0
30/07:30am 16.5 - - - - E 9 13 5 7 - - 0.0
30/07:00am 13.4 - - - - E 9 13 5 7 - - 0.0
30/06:30am 11.2 - - - - ENE 7 9 4 5 - - 0.0
30/06:00am 10.7 - - - - ESE 9 11 5 6 - - 0.0
30/05:30am 10.9 - - - - E 9 11 5 6 - - 0.0
30/05:00am 10.5 - - - - CALM 0 0 0 0 - - 0.0
30/04:30am 10.9 - - - - CALM 0 0 0 0 - - 0.0
30/04:00am 11.4 - - - - CALM 0 0 0 0 - - 0.0
30/03:30am 11.3 - - - - CALM 0 0 0 0 - - 0.0
30/03:00am 11.9 - - - - S 7 9 4 5 - - 0.0
30/02:30am 10.6 - - - - CALM 0 0 0 0 - - 0.0
30/02:00am 12.7 - - - - S 7 9 4 5 - - 0.0
30/01:30am 13.4 - - - - NW 7 9 4 5 - - 0.0
30/01:00am 14.1 - - - - NNW 11 13 6 7 - - 0.0
30/12:30am 14.8 - - - - NNW 11 13 6 7 - - 0.0
30/12:00am 14.0 - - - - NNW 11 13 6 7 - - 0.0
 
Date/Time
WST
Temp
°C
App
Temp
°C
Dew
Point
Rel
Hum
%
Delta-T
°C
Wind Press
QNH
hPa
Press
MSL
hPa
Rain
since 9 am
mm
Dir
 
Spd
km/h
Gust
km/h
Spd
kts
Gust
kts
29/11:30pm 14.9 - - - - NW 11 11 6 6 - - 0.0
29/11:00pm 15.6 - - - - NW 13 13 7 7 - - 0.0
29/10:30pm 16.2 - - - - NW 7 11 4 6 - - 0.0
29/10:00pm 17.0 - - - - W 13 15 7 8 - - 0.0
29/09:30pm 17.4 - - - - WNW 11 13 6 7 - - 0.0
29/09:00pm 17.5 - - - - NW 15 17 8 9 - - 0.0
29/08:30pm 17.7 - - - - NW 13 15 7 8 - - 0.0
29/08:00pm 19.0 - - - - NNW 13 15 7 8 - - 0.0
29/07:30pm 20.0 - - - - NW 11 13 6 7 - - 0.0
29/07:00pm 21.2 - - - - NW 13 19 7 10 - - 0.0
29/06:30pm 21.6 - - - - NW 13 17 7 9 - - 0.0
29/06:00pm 23.1 - - - - NW 13 17 7 9 - - 0.0
29/05:30pm 25.3 - - - - NW 17 22 9 12 - - 0.0
29/05:00pm 26.9 - - - - NW 19 30 10 16 - - 0.0
29/04:30pm 28.9 - - - - NW 17 26 9 14 - - 0.0
29/04:00pm 31.7 - - - - NNW 13 19 7 10 - - 0.0
29/03:30pm 32.9 - - - - E 11 24 6 13 - - 0.0
29/03:00pm 33.0 - - - - E 15 24 8 13 - - 0.0
29/02:30pm 33.7 - - - - ENE 15 22 8 12 - - 0.0
29/02:00pm 33.9 - - - - ENE 15 26 8 14 - - 0.0
29/01:30pm 33.6 - - - - NNE 15 28 8 15 - - 0.0
29/01:00pm 32.9 - - - - E 19 28 10 15 - - 0.0
29/12:30pm 32.9 - - - - E 15 30 8 16 - - 0.0
29/12:00pm 32.3 - - - - ESE 20 28 11 15 - - 0.0
29/11:30am 32.0 - - - - ENE 19 32 10 17 - - 0.0
29/11:00am 31.3 - - - - ENE 17 28 9 15 - - 0.0
29/10:30am 31.0 - - - - ENE 17 28 9 15 - - 0.0
29/10:00am 29.3 - - - - E 13 20 7 11 - - 0.0
29/09:30am 27.9 - - - - E 13 19 7 10 - - 0.0
29/09:00am 25.7 - - - - E 17 22 9 12 - - 0.0
29/08:30am 23.1 - - - - ENE 17 24 9 13 - - 0.0
29/08:00am 20.0 - - - - E 15 24 8 13 - - 0.0
29/07:30am 17.0 - - - - E 11 17 6 9 - - 0.0
29/07:00am 13.2 - - - - E 9 11 5 6 - - 0.0
29/06:30am 10.4 - - - - E 11 13 6 7 - - 0.0
29/06:00am 9.7 - - - - E 11 13 6 7 - - 0.0
29/05:30am 11.7 - - - - ENE 11 13 6 7 - - 0.0
29/05:00am 12.8 - - - - NE 13 15 7 8 - - 0.0
29/04:30am 13.0 - - - - NE 11 13 6 7 - - 0.0
29/04:00am 12.2 - - - - ENE 9 11 5 6 - - 0.0
29/03:30am 12.0 - - - - E 11 13 6 7 - - 0.0
29/03:00am 12.9 - - - - E 11 13 6 7 - - 0.0
29/02:30am 13.3 - - - - E 9 11 5 6 - - 0.0
29/02:00am 13.4 - - - - ENE 11 13 6 7 - - 0.0
29/01:30am 14.3 - - - - E 7 9 4 5 - - 0.0
29/01:00am 13.6 - - - - SE 9 11 5 6 - - 0.0
29/12:30am 14.3 - - - - ENE 4 6 2 3 - - 0.0
29/12:00am 14.3 - - - - ENE 7 9 4 5 - - 0.0
 
Date/Time
WST
Temp
°C
App
Temp
°C
Dew
Point
Rel
Hum
%
Delta-T
°C
Wind Press
QNH
hPa
Press
MSL
hPa
Rain
since 9 am
mm
Dir
 
Spd
km/h
Gust
km/h
Spd
kts
Gust
kts
28/11:30pm 14.6 - - - - ESE 7 11 4 6 - - 0.0
28/11:00pm 15.6 - - - - SE 9 11 5 6 - - 0.0
28/10:30pm 14.9 - - - - SSE 11 11 6 6 - - 0.0
28/10:00pm 16.0 - - - - WSW 6 11 3 6 - - 0.0
28/09:30pm 17.0 - - - - W 11 13 6 7 - - 0.0
28/09:00pm 17.3 - - - - WNW 11 11 6 6 - - 0.0
28/08:30pm 17.4 - - - - WNW 4 7 2 4 - - 0.0
28/08:00pm 18.7 - - - - NW 2 7 1 4 - - 0.0
28/07:30pm 19.9 - - - - NNW 11 13 6 7 - - 0.0
28/07:00pm 20.6 - - - - NNW 11 13 6 7 - - 0.0
28/06:30pm 20.6 - - - - NW 11 13 6 7 - - 0.0
28/06:00pm 22.4 - - - - NW 9 13 5 7 - - 0.0
28/05:30pm 24.6 - - - - NW 11 17 6 9 - - 0.0
28/05:00pm 26.5 - - - - NW 13 19 7 10 - - 0.0
28/04:30pm 27.7 - - - - NW 17 22 9 12 - - 0.0
28/04:00pm 28.2 - - - - WNW 17 24 9 13 - - 0.0
28/03:30pm 29.0 - - - - WNW 20 26 11 14 - - 0.0
28/03:00pm 29.2 - - - - W 20 28 11 15 - - 0.0
28/02:30pm 30.4 - - - - W 20 26 11 14 - - 0.0
28/02:00pm 30.0 - - - - WNW 22 32 12 17 - - 0.0
28/01:30pm 30.5 - - - - W 22 30 12 16 - - 0.0
28/01:00pm 33.0 - - - - NNE 15 24 8 13 - - 0.0
28/12:30pm 33.0 - - - - NNE 24 32 13 17 - - 0.0
28/12:00pm 32.8 - - - - ESE 19 30 10 16 - - 0.0
28/11:30am 32.5 - - - - ENE 26 35 14 19 - - 0.0
28/11:00am 32.7 - - - - ENE 19 28 10 15 - - 0.0
28/10:30am 31.7 - - - - ENE 17 28 9 15 - - 0.0
28/10:00am 29.8 - - - - E 17 24 9 13 - - 0.0
28/09:30am 27.6 - - - - E 19 28 10 15 - - 0.0
28/09:00am 25.9 - - - - ENE 19 33 10 18 - - 0.0
28/08:30am 24.4 - - - - E 19 30 10 16 - - 0.0
28/08:00am 21.7 - - - - E 20 32 11 17 - - 0.0
28/07:30am 19.1 - - - - E 13 19 7 10 - - 0.0
28/07:00am 15.3 - - - - E 11 15 6 8 - - 0.0
28/06:30am 10.5 - - - - E 9 11 5 6 - - 0.0
28/06:00am 10.5 - - - - ESE 13 17 7 9 - - 0.0
28/05:30am 10.4 - - - - ESE 11 13 6 7 - - 0.0
28/05:00am 10.8 - - - - ESE 13 15 7 8 - - 0.0
28/04:30am 10.2 - - - - ESE 11 13 6 7 - - 0.0
28/04:00am 10.8 - - - - E 11 13 6 7 - - 0.0
28/03:30am 10.9 - - - - E 13 15 7 8 - - 0.0
28/03:00am 12.2 - - - - ESE 11 13 6 7 - - 0.0
28/02:30am 13.0 - - - - E 11 13 6 7 - - 0.0
28/02:00am 13.8 - - - - SE 9 11 5 6 - - 0.0
28/01:30am 15.2 - - - - SSE 9 13 5 7 - - 0.0
28/01:00am 14.6 - - - - SSE 9 11 5 6 - - 0.0
28/12:30am 15.9 - - - - SSW 11 13 6 7 - - 0.0
28/12:00am 14.9 - - - - SSW 9 11 5 6 - - 0.0
 
Date/Time
WST
Temp
°C
App
Temp
°C
Dew
Point
Rel
Hum
%
Delta-T
°C
Wind Press
QNH
hPa
Press
MSL
hPa
Rain
since 9 am
mm
Dir
 
Spd
km/h
Gust
km/h
Spd
kts
Gust
kts
27/11:30pm 15.0 - - - - S 7 9 4 5 - - 0.0
27/11:00pm 15.3 - - - - S 6 6 3 3 - - 0.0
27/10:30pm 15.2 - - - - S 7 9 4 5 - - 0.0
27/10:00pm 15.8 - - - - S 7 7 4 4 - - 0.0
27/09:30pm 16.2 - - - - S 7 9 4 5 - - 0.0
27/09:00pm 15.9 - - - - W 6 6 3 3 - - 0.0
27/08:30pm 17.8 - - - - WSW 9 11 5 6 - - 0.0
27/08:00pm 17.4 - - - - W 9 11 5 6 - - 0.0
27/07:30pm 18.5 - - - - W 11 11 6 6 - - 0.0
27/07:00pm 19.8 - - - - WNW 9 9 5 5 - - 0.0
27/06:30pm 21.4 - - - - NW 13 15 7 8 - - 0.0
27/06:00pm 22.7 - - - - NW 13 15 7 8 - - 0.0
27/05:30pm 24.7 - - - - NW 13 17 7 9 - - 0.0
27/05:00pm 26.5 - - - - NW 13 20 7 11 - - 0.0
27/04:30pm 27.5 - - - - WNW 17 22 9 12 - - 0.0
27/04:00pm 28.3 - - - - WNW 17 24 9 13 - - 0.0
27/03:30pm 29.1 - - - - WNW 20 28 11 15 - - 0.0
27/03:00pm 29.4 - - - - WNW 22 30 12 16 - - 0.0
27/02:30pm 30.2 - - - - NW 20 26 11 14 - - 0.0
27/02:00pm 32.6 - - - - E 19 30 10 16 - - 0.0
27/01:30pm 32.5 - - - - ESE 19 26 10 14 - - 0.0
27/01:00pm 32.4 - - - - E 15 30 8 16 - - 0.0
27/12:30pm 31.8 - - - - ESE 13 22 7 12 - - 0.0
27/12:00pm 31.9 - - - - E 20 32 11 17 - - 0.0
27/11:30am 31.5 - - - - ENE 19 37 10 20 - - 0.0
27/11:00am 31.8 - - - - E 19 28 10 15 - - 0.0
27/10:30am 29.9 - - - - ENE 20 32 11 17 - - 0.0
27/10:00am 28.4 - - - - ENE 22 33 12 18 - - 0.0
27/09:30am 27.5 - - - - ENE 22 30 12 16 - - 0.0
27/09:00am 25.5 - - - - ENE 19 30 10 16 - - 0.0
27/08:30am 24.0 - - - - ENE 15 24 8 13 - - 0.0

Other Formats:

Comma delimited format used in spreadsheet applications
http://www.bom.gov.au/fwo/IDW60801/IDW60801.95204.axf

JavaScript Object Notation format (JSON) in row-major order
http://www.bom.gov.au/fwo/IDW60801/IDW60801.95204.json